sensor_id;sensor_type;location;lat;lon;timestamp;P1;durP1;ratioP1;P2;durP2;ratioP2
22144;SDS011;11238;48.730;11.566;2022-07-17T00:00:36;4.40;;;2.40;;
22144;SDS011;11238;48.730;11.566;2022-07-17T00:03:05;4.20;;;2.70;;
22144;SDS011;11238;48.730;11.566;2022-07-17T00:05:31;4.35;;;2.60;;
22144;SDS011;11238;48.730;11.566;2022-07-17T00:07:57;4.55;;;2.65;;
22144;SDS011;11238;48.730;11.566;2022-07-17T00:10:23;9.00;;;2.60;;
22144;SDS011;11238;48.730;11.566;2022-07-17T00:12:50;3.63;;;2.60;;
22144;SDS011;11238;48.730;11.566;2022-07-17T00:15:15;4.55;;;2.60;;
22144;SDS011;11238;48.730;11.566;2022-07-17T00:17:41;3.45;;;2.55;;
22144;SDS011;11238;48.730;11.566;2022-07-17T00:20:08;7.72;;;3.03;;
22144;SDS011;11238;48.730;11.566;2022-07-17T00:22:34;8.48;;;3.05;;
22144;SDS011;11238;48.730;11.566;2022-07-17T00:25:00;4.07;;;2.90;;
22144;SDS011;11238;48.730;11.566;2022-07-17T00:27:26;4.75;;;2.78;;
22144;SDS011;11238;48.730;11.566;2022-07-17T00:29:52;4.22;;;2.67;;
22144;SDS011;11238;48.730;11.566;2022-07-17T00:32:18;4.50;;;2.90;;
22144;SDS011;11238;48.730;11.566;2022-07-17T00:34:44;5.68;;;3.00;;
22144;SDS011;11238;48.730;11.566;2022-07-17T00:37:10;3.38;;;2.60;;
22144;SDS011;11238;48.730;11.566;2022-07-17T00:39:36;3.38;;;2.80;;
22144;SDS011;11238;48.730;11.566;2022-07-17T00:42:02;3.97;;;2.75;;
22144;SDS011;11238;48.730;11.566;2022-07-17T00:44:28;6.15;;;2.97;;
22144;SDS011;11238;48.730;11.566;2022-07-17T00:46:54;7.03;;;2.85;;
22144;SDS011;11238;48.730;11.566;2022-07-17T00:49:20;11.60;;;2.92;;
22144;SDS011;11238;48.730;11.566;2022-07-17T00:51:45;6.45;;;3.28;;
22144;SDS011;11238;48.730;11.566;2022-07-17T00:54:11;4.80;;;3.25;;
22144;SDS011;11238;48.730;11.566;2022-07-17T00:56:40;3.80;;;3.08;;
22144;SDS011;11238;48.730;11.566;2022-07-17T00:59:07;5.05;;;3.15;;
22144;SDS011;11238;48.730;11.566;2022-07-17T01:01:34;4.28;;;2.90;;
22144;SDS011;11238;48.730;11.566;2022-07-17T01:04:00;7.72;;;2.90;;
22144;SDS011;11238;48.730;11.566;2022-07-17T01:06:25;4.30;;;3.10;;
22144;SDS011;11238;48.730;11.566;2022-07-17T01:08:52;5.03;;;3.17;;
22144;SDS011;11238;48.730;11.566;2022-07-17T01:11:18;4.88;;;3.20;;
22144;SDS011;11238;48.730;11.566;2022-07-17T01:13:44;4.80;;;3.08;;
22144;SDS011;11238;48.730;11.566;2022-07-17T01:16:10;4.85;;;2.85;;
22144;SDS011;11238;48.730;11.566;2022-07-17T01:18:36;5.13;;;3.30;;
22144;SDS011;11238;48.730;11.566;2022-07-17T01:21:03;4.45;;;3.17;;
22144;SDS011;11238;48.730;11.566;2022-07-17T01:23:33;6.32;;;3.30;;
22144;SDS011;11238;48.730;11.566;2022-07-17T01:25:59;5.80;;;3.85;;
22144;SDS011;11238;48.730;11.566;2022-07-17T01:28:25;6.32;;;3.65;;
22144;SDS011;11238;48.730;11.566;2022-07-17T01:30:51;8.13;;;3.85;;
22144;SDS011;11238;48.730;11.566;2022-07-17T01:33:18;6.30;;;3.72;;
22144;SDS011;11238;48.730;11.566;2022-07-17T01:35:44;4.88;;;3.30;;
22144;SDS011;11238;48.730;11.566;2022-07-17T01:38:11;7.68;;;3.75;;
22144;SDS011;11238;48.730;11.566;2022-07-17T01:40:37;4.18;;;3.55;;
22144;SDS011;11238;48.730;11.566;2022-07-17T01:43:03;6.22;;;3.75;;
22144;SDS011;11238;48.730;11.566;2022-07-17T01:45:28;6.40;;;3.47;;
22144;SDS011;11238;48.730;11.566;2022-07-17T01:47:55;4.65;;;3.55;;
22144;SDS011;11238;48.730;11.566;2022-07-17T01:50:21;8.48;;;3.50;;
22144;SDS011;11238;48.730;11.566;2022-07-17T01:52:48;5.15;;;3.35;;
22144;SDS011;11238;48.730;11.566;2022-07-17T01:55:14;4.72;;;3.35;;
22144;SDS011;11238;48.730;11.566;2022-07-17T01:57:41;4.65;;;3.60;;
22144;SDS011;11238;48.730;11.566;2022-07-17T02:00:09;8.02;;;3.38;;
22144;SDS011;11238;48.730;11.566;2022-07-17T02:02:45;5.82;;;3.58;;
22144;SDS011;11238;48.730;11.566;2022-07-17T02:05:11;6.38;;;3.90;;
22144;SDS011;11238;48.730;11.566;2022-07-17T02:07:37;7.75;;;3.78;;
22144;SDS011;11238;48.730;11.566;2022-07-17T02:10:05;4.50;;;3.70;;
22144;SDS011;11238;48.730;11.566;2022-07-17T02:12:32;5.90;;;3.70;;
22144;SDS011;11238;48.730;11.566;2022-07-17T02:14:58;5.40;;;3.88;;
22144;SDS011;11238;48.730;11.566;2022-07-17T02:17:24;5.97;;;3.45;;
22144;SDS011;11238;48.730;11.566;2022-07-17T02:19:49;5.85;;;3.47;;
22144;SDS011;11238;48.730;11.566;2022-07-17T02:22:15;4.53;;;3.22;;
22144;SDS011;11238;48.730;11.566;2022-07-17T02:24:41;5.07;;;3.47;;
22144;SDS011;11238;48.730;11.566;2022-07-17T02:27:07;6.43;;;3.70;;
22144;SDS011;11238;48.730;11.566;2022-07-17T02:29:33;5.07;;;3.65;;
22144;SDS011;11238;48.730;11.566;2022-07-17T02:31:59;7.30;;;3.63;;
22144;SDS011;11238;48.730;11.566;2022-07-17T02:34:24;9.02;;;3.40;;
22144;SDS011;11238;48.730;11.566;2022-07-17T02:36:50;7.10;;;3.75;;
22144;SDS011;11238;48.730;11.566;2022-07-17T02:39:16;6.70;;;4.07;;
22144;SDS011;11238;48.730;11.566;2022-07-17T02:41:42;8.57;;;3.78;;
22144;SDS011;11238;48.730;11.566;2022-07-17T02:44:08;4.45;;;3.60;;
22144;SDS011;11238;48.730;11.566;2022-07-17T02:46:34;5.20;;;3.47;;
22144;SDS011;11238;48.730;11.566;2022-07-17T02:49:00;5.47;;;3.47;;
22144;SDS011;11238;48.730;11.566;2022-07-17T02:51:25;5.65;;;3.58;;
22144;SDS011;11238;48.730;11.566;2022-07-17T02:53:52;5.63;;;3.75;;
22144;SDS011;11238;48.730;11.566;2022-07-17T02:56:18;3.78;;;3.30;;
22144;SDS011;11238;48.730;11.566;2022-07-17T02:58:43;10.70;;;3.70;;
22144;SDS011;11238;48.730;11.566;2022-07-17T03:01:09;5.65;;;3.67;;
22144;SDS011;11238;48.730;11.566;2022-07-17T03:03:35;7.57;;;3.33;;
22144;SDS011;11238;48.730;11.566;2022-07-17T03:06:01;4.93;;;3.35;;
22144;SDS011;11238;48.730;11.566;2022-07-17T03:08:27;6.60;;;3.75;;
22144;SDS011;11238;48.730;11.566;2022-07-17T03:10:53;8.27;;;3.67;;
22144;SDS011;11238;48.730;11.566;2022-07-17T03:13:19;6.53;;;3.58;;
22144;SDS011;11238;48.730;11.566;2022-07-17T03:15:45;6.10;;;3.50;;
22144;SDS011;11238;48.730;11.566;2022-07-17T03:18:11;5.82;;;3.78;;
22144;SDS011;11238;48.730;11.566;2022-07-17T03:20:37;9.43;;;3.58;;
22144;SDS011;11238;48.730;11.566;2022-07-17T03:23:03;6.57;;;4.00;;
22144;SDS011;11238;48.730;11.566;2022-07-17T03:25:29;5.20;;;3.80;;
22144;SDS011;11238;48.730;11.566;2022-07-17T03:27:56;6.28;;;3.90;;
22144;SDS011;11238;48.730;11.566;2022-07-17T03:30:22;6.43;;;3.58;;
22144;SDS011;11238;48.730;11.566;2022-07-17T03:32:48;6.22;;;3.60;;
22144;SDS011;11238;48.730;11.566;2022-07-17T03:35:13;3.70;;;3.40;;
22144;SDS011;11238;48.730;11.566;2022-07-17T03:37:39;4.97;;;3.17;;
22144;SDS011;11238;48.730;11.566;2022-07-17T03:40:06;5.03;;;3.60;;
22144;SDS011;11238;48.730;11.566;2022-07-17T03:42:32;5.03;;;3.53;;
22144;SDS011;11238;48.730;11.566;2022-07-17T03:44:58;5.25;;;3.30;;
22144;SDS011;11238;48.730;11.566;2022-07-17T03:47:24;4.55;;;3.55;;
22144;SDS011;11238;48.730;11.566;2022-07-17T03:49:50;4.70;;;3.50;;
22144;SDS011;11238;48.730;11.566;2022-07-17T03:52:16;5.28;;;3.92;;
22144;SDS011;11238;48.730;11.566;2022-07-17T03:54:42;4.72;;;3.60;;
22144;SDS011;11238;48.730;11.566;2022-07-17T03:57:08;4.95;;;3.40;;
22144;SDS011;11238;48.730;11.566;2022-07-17T03:59:34;4.53;;;3.72;;
22144;SDS011;11238;48.730;11.566;2022-07-17T04:02:00;5.35;;;3.78;;
22144;SDS011;11238;48.730;11.566;2022-07-17T04:04:26;5.28;;;3.70;;
22144;SDS011;11238;48.730;11.566;2022-07-17T04:06:52;6.80;;;3.97;;
22144;SDS011;11238;48.730;11.566;2022-07-17T04:09:18;6.78;;;4.07;;
22144;SDS011;11238;48.730;11.566;2022-07-17T04:11:44;10.70;;;3.97;;
22144;SDS011;11238;48.730;11.566;2022-07-17T04:14:10;9.13;;;4.07;;
22144;SDS011;11238;48.730;11.566;2022-07-17T04:16:35;7.53;;;4.10;;
22144;SDS011;11238;48.730;11.566;2022-07-17T04:19:01;7.15;;;4.00;;
22144;SDS011;11238;48.730;11.566;2022-07-17T04:21:27;4.80;;;3.70;;
22144;SDS011;11238;48.730;11.566;2022-07-17T04:23:52;6.55;;;4.10;;
22144;SDS011;11238;48.730;11.566;2022-07-17T04:26:19;8.15;;;4.40;;
22144;SDS011;11238;48.730;11.566;2022-07-17T04:28:45;5.57;;;3.80;;
22144;SDS011;11238;48.730;11.566;2022-07-17T04:31:11;4.53;;;3.88;;
22144;SDS011;11238;48.730;11.566;2022-07-17T04:33:37;6.43;;;4.10;;
22144;SDS011;11238;48.730;11.566;2022-07-17T04:36:04;4.72;;;3.78;;
22144;SDS011;11238;48.730;11.566;2022-07-17T04:38:29;5.13;;;3.60;;
22144;SDS011;11238;48.730;11.566;2022-07-17T04:40:55;5.65;;;3.78;;
22144;SDS011;11238;48.730;11.566;2022-07-17T04:43:22;5.82;;;3.85;;
22144;SDS011;11238;48.730;11.566;2022-07-17T04:45:48;5.22;;;4.00;;
22144;SDS011;11238;48.730;11.566;2022-07-17T04:48:14;4.95;;;3.67;;
22144;SDS011;11238;48.730;11.566;2022-07-17T04:50:40;8.07;;;3.97;;
22144;SDS011;11238;48.730;11.566;2022-07-17T04:53:06;4.60;;;4.10;;
22144;SDS011;11238;48.730;11.566;2022-07-17T04:55:32;4.75;;;4.10;;
22144;SDS011;11238;48.730;11.566;2022-07-17T04:57:58;5.07;;;4.20;;
22144;SDS011;11238;48.730;11.566;2022-07-17T05:00:24;6.20;;;3.75;;
22144;SDS011;11238;48.730;11.566;2022-07-17T05:02:50;6.30;;;3.95;;
22144;SDS011;11238;48.730;11.566;2022-07-17T05:05:16;5.85;;;3.85;;
22144;SDS011;11238;48.730;11.566;2022-07-17T05:07:42;4.85;;;3.88;;
22144;SDS011;11238;48.730;11.566;2022-07-17T05:10:08;6.85;;;3.95;;
22144;SDS011;11238;48.730;11.566;2022-07-17T05:12:34;6.32;;;4.10;;
22144;SDS011;11238;48.730;11.566;2022-07-17T05:15:01;5.95;;;3.65;;
22144;SDS011;11238;48.730;11.566;2022-07-17T05:17:26;8.23;;;4.00;;
22144;SDS011;11238;48.730;11.566;2022-07-17T05:19:52;5.60;;;4.45;;
22144;SDS011;11238;48.730;11.566;2022-07-17T05:22:18;5.68;;;4.30;;
22144;SDS011;11238;48.730;11.566;2022-07-17T05:24:44;7.45;;;3.75;;
22144;SDS011;11238;48.730;11.566;2022-07-17T05:27:10;5.93;;;3.83;;
22144;SDS011;11238;48.730;11.566;2022-07-17T05:29:36;9.55;;;4.07;;
22144;SDS011;11238;48.730;11.566;2022-07-17T05:32:01;6.15;;;3.63;;
22144;SDS011;11238;48.730;11.566;2022-07-17T05:34:28;6.63;;;3.72;;
22144;SDS011;11238;48.730;11.566;2022-07-17T05:36:54;5.05;;;4.05;;
22144;SDS011;11238;48.730;11.566;2022-07-17T05:39:19;6.40;;;3.45;;
22144;SDS011;11238;48.730;11.566;2022-07-17T05:41:45;5.07;;;3.40;;
22144;SDS011;11238;48.730;11.566;2022-07-17T05:44:11;3.88;;;3.40;;
22144;SDS011;11238;48.730;11.566;2022-07-17T05:46:37;4.18;;;3.03;;
22144;SDS011;11238;48.730;11.566;2022-07-17T05:49:03;8.57;;;3.08;;
22144;SDS011;11238;48.730;11.566;2022-07-17T05:51:29;4.47;;;2.88;;
22144;SDS011;11238;48.730;11.566;2022-07-17T05:53:55;4.95;;;2.88;;
22144;SDS011;11238;48.730;11.566;2022-07-17T05:56:21;4.13;;;2.60;;
22144;SDS011;11238;48.730;11.566;2022-07-17T05:58:48;7.60;;;2.72;;
22144;SDS011;11238;48.730;11.566;2022-07-17T06:01:14;3.67;;;2.55;;
22144;SDS011;11238;48.730;11.566;2022-07-17T06:03:40;4.32;;;2.40;;
22144;SDS011;11238;48.730;11.566;2022-07-17T06:06:06;3.38;;;2.20;;
22144;SDS011;11238;48.730;11.566;2022-07-17T06:08:32;4.97;;;2.40;;
22144;SDS011;11238;48.730;11.566;2022-07-17T06:10:58;3.10;;;2.25;;
22144;SDS011;11238;48.730;11.566;2022-07-17T06:13:24;5.07;;;2.75;;
22144;SDS011;11238;48.730;11.566;2022-07-17T06:15:50;3.88;;;2.22;;
22144;SDS011;11238;48.730;11.566;2022-07-17T06:18:16;3.95;;;2.13;;
22144;SDS011;11238;48.730;11.566;2022-07-17T06:20:42;4.47;;;2.20;;
22144;SDS011;11238;48.730;11.566;2022-07-17T06:23:08;3.88;;;2.35;;
22144;SDS011;11238;48.730;11.566;2022-07-17T06:25:33;4.38;;;2.05;;
22144;SDS011;11238;48.730;11.566;2022-07-17T06:27:59;5.43;;;2.28;;
22144;SDS011;11238;48.730;11.566;2022-07-17T06:30:25;3.40;;;2.08;;
22144;SDS011;11238;48.730;11.566;2022-07-17T06:32:51;4.85;;;2.10;;
22144;SDS011;11238;48.730;11.566;2022-07-17T06:35:17;4.93;;;2.05;;
22144;SDS011;11238;48.730;11.566;2022-07-17T06:37:43;4.55;;;1.95;;
22144;SDS011;11238;48.730;11.566;2022-07-17T06:40:09;2.47;;;1.75;;
22144;SDS011;11238;48.730;11.566;2022-07-17T06:42:35;3.65;;;2.03;;
22144;SDS011;11238;48.730;11.566;2022-07-17T06:45:01;6.93;;;2.30;;
22144;SDS011;11238;48.730;11.566;2022-07-17T06:47:27;2.50;;;1.80;;
22144;SDS011;11238;48.730;11.566;2022-07-17T06:49:52;4.07;;;1.92;;
22144;SDS011;11238;48.730;11.566;2022-07-17T06:52:18;3.03;;;2.00;;
22144;SDS011;11238;48.730;11.566;2022-07-17T06:54:44;4.45;;;1.90;;
22144;SDS011;11238;48.730;11.566;2022-07-17T06:57:10;3.90;;;1.80;;
22144;SDS011;11238;48.730;11.566;2022-07-17T06:59:36;3.85;;;1.90;;
22144;SDS011;11238;48.730;11.566;2022-07-17T07:02:02;3.05;;;1.90;;
22144;SDS011;11238;48.730;11.566;2022-07-17T07:04:28;4.95;;;1.75;;
22144;SDS011;11238;48.730;11.566;2022-07-17T07:06:54;4.00;;;1.90;;
22144;SDS011;11238;48.730;11.566;2022-07-17T07:09:20;4.65;;;1.80;;
22144;SDS011;11238;48.730;11.566;2022-07-17T07:11:45;4.22;;;1.95;;
22144;SDS011;11238;48.730;11.566;2022-07-17T07:14:11;3.55;;;2.08;;
22144;SDS011;11238;48.730;11.566;2022-07-17T07:16:37;3.47;;;2.10;;
22144;SDS011;11238;48.730;11.566;2022-07-17T07:19:03;3.38;;;1.73;;
22144;SDS011;11238;48.730;11.566;2022-07-17T07:21:29;5.45;;;2.05;;
22144;SDS011;11238;48.730;11.566;2022-07-17T07:23:55;3.95;;;2.00;;
22144;SDS011;11238;48.730;11.566;2022-07-17T07:26:21;3.53;;;1.98;;
22144;SDS011;11238;48.730;11.566;2022-07-17T07:28:48;4.13;;;1.80;;
22144;SDS011;11238;48.730;11.566;2022-07-17T07:31:13;3.47;;;1.95;;
22144;SDS011;11238;48.730;11.566;2022-07-17T07:33:42;3.50;;;2.45;;
22144;SDS011;11238;48.730;11.566;2022-07-17T07:36:08;3.42;;;1.80;;
22144;SDS011;11238;48.730;11.566;2022-07-17T07:38:34;2.75;;;1.75;;
22144;SDS011;11238;48.730;11.566;2022-07-17T07:41:00;2.55;;;1.92;;
22144;SDS011;11238;48.730;11.566;2022-07-17T07:43:26;4.60;;;1.83;;
22144;SDS011;11238;48.730;11.566;2022-07-17T07:45:52;2.08;;;1.58;;
22144;SDS011;11238;48.730;11.566;2022-07-17T07:48:17;6.00;;;2.28;;
22144;SDS011;11238;48.730;11.566;2022-07-17T07:50:43;3.78;;;1.70;;
22144;SDS011;11238;48.730;11.566;2022-07-17T07:53:09;6.50;;;1.70;;
22144;SDS011;11238;48.730;11.566;2022-07-17T07:55:35;2.90;;;1.63;;
22144;SDS011;11238;48.730;11.566;2022-07-17T07:58:04;3.17;;;1.88;;
22144;SDS011;11238;48.730;11.566;2022-07-17T08:03:00;3.13;;;1.70;;
22144;SDS011;11238;48.730;11.566;2022-07-17T08:05:26;2.97;;;1.70;;
22144;SDS011;11238;48.730;11.566;2022-07-17T08:07:52;4.10;;;1.73;;
22144;SDS011;11238;48.730;11.566;2022-07-17T08:10:18;3.45;;;1.80;;
22144;SDS011;11238;48.730;11.566;2022-07-17T08:12:43;3.83;;;1.55;;
22144;SDS011;11238;48.730;11.566;2022-07-17T08:15:09;3.80;;;1.80;;
22144;SDS011;11238;48.730;11.566;2022-07-17T08:18:00;2.97;;;1.75;;
22144;SDS011;11238;48.730;11.566;2022-07-17T08:20:28;5.00;;;2.05;;
22144;SDS011;11238;48.730;11.566;2022-07-17T08:22:54;5.65;;;1.52;;
22144;SDS011;11238;48.730;11.566;2022-07-17T08:25:20;2.53;;;1.50;;
22144;SDS011;11238;48.730;11.566;2022-07-17T08:27:46;2.75;;;1.75;;
22144;SDS011;11238;48.730;11.566;2022-07-17T08:30:13;2.15;;;1.77;;
22144;SDS011;11238;48.730;11.566;2022-07-17T08:32:40;4.00;;;1.40;;
22144;SDS011;11238;48.730;11.566;2022-07-17T08:35:07;7.43;;;1.77;;
22144;SDS011;11238;48.730;11.566;2022-07-17T08:37:46;6.30;;;2.38;;
22144;SDS011;11238;48.730;11.566;2022-07-17T08:40:15;2.38;;;1.50;;
22144;SDS011;11238;48.730;11.566;2022-07-17T08:42:46;2.38;;;1.60;;
22144;SDS011;11238;48.730;11.566;2022-07-17T08:45:12;3.55;;;1.52;;
22144;SDS011;11238;48.730;11.566;2022-07-17T08:47:39;3.10;;;1.60;;
22144;SDS011;11238;48.730;11.566;2022-07-17T08:50:06;3.50;;;1.80;;
22144;SDS011;11238;48.730;11.566;2022-07-17T08:52:40;4.35;;;1.45;;
22144;SDS011;11238;48.730;11.566;2022-07-17T08:55:13;2.50;;;1.45;;
22144;SDS011;11238;48.730;11.566;2022-07-17T08:57:40;2.60;;;1.23;;
22144;SDS011;11238;48.730;11.566;2022-07-17T09:00:07;2.47;;;1.50;;
22144;SDS011;11238;48.730;11.566;2022-07-17T09:02:36;3.33;;;1.58;;
22144;SDS011;11238;48.730;11.566;2022-07-17T09:05:03;2.25;;;1.60;;
22144;SDS011;11238;48.730;11.566;2022-07-17T09:07:30;1.85;;;1.27;;
22144;SDS011;11238;48.730;11.566;2022-07-17T09:09:56;1.95;;;1.30;;
22144;SDS011;11238;48.730;11.566;2022-07-17T09:12:28;2.50;;;1.40;;
22144;SDS011;11238;48.730;11.566;2022-07-17T09:14:55;2.30;;;1.40;;
22144;SDS011;11238;48.730;11.566;2022-07-17T09:17:22;2.55;;;1.40;;
22144;SDS011;11238;48.730;11.566;2022-07-17T09:19:51;3.10;;;1.10;;
22144;SDS011;11238;48.730;11.566;2022-07-17T09:22:22;2.60;;;1.35;;
22144;SDS011;11238;48.730;11.566;2022-07-17T09:29:50;3.97;;;1.70;;
22144;SDS011;11238;48.730;11.566;2022-07-17T09:32:17;5.95;;;2.30;;
22144;SDS011;11238;48.730;11.566;2022-07-17T09:34:49;2.75;;;1.50;;
22144;SDS011;11238;48.730;11.566;2022-07-17T09:37:16;3.50;;;1.70;;
22144;SDS011;11238;48.730;11.566;2022-07-17T09:39:42;5.10;;;1.67;;
22144;SDS011;11238;48.730;11.566;2022-07-17T09:42:09;2.50;;;1.30;;
22144;SDS011;11238;48.730;11.566;2022-07-17T09:44:59;1.63;;;1.42;;
22144;SDS011;11238;48.730;11.566;2022-07-17T09:49:57;2.55;;;1.40;;
22144;SDS011;11238;48.730;11.566;2022-07-17T09:52:25;1.23;;;1.10;;
22144;SDS011;11238;48.730;11.566;2022-07-17T09:54:57;1.42;;;1.30;;
22144;SDS011;11238;48.730;11.566;2022-07-17T09:57:30;2.78;;;1.25;;
22144;SDS011;11238;48.730;11.566;2022-07-17T10:00:06;3.10;;;1.48;;
22144;SDS011;11238;48.730;11.566;2022-07-17T10:02:41;1.30;;;1.20;;
22144;SDS011;11238;48.730;11.566;2022-07-17T10:05:11;3.75;;;1.50;;
22144;SDS011;11238;48.730;11.566;2022-07-17T10:07:44;2.03;;;1.23;;
22144;SDS011;11238;48.730;11.566;2022-07-17T10:10:11;1.75;;;1.33;;
22144;SDS011;11238;48.730;11.566;2022-07-17T10:12:38;5.00;;;1.30;;
22144;SDS011;11238;48.730;11.566;2022-07-17T10:15:07;1.50;;;1.20;;
22144;SDS011;11238;48.730;11.566;2022-07-17T10:17:34;2.75;;;1.30;;
22144;SDS011;11238;48.730;11.566;2022-07-17T10:20:00;2.95;;;1.20;;
22144;SDS011;11238;48.730;11.566;2022-07-17T10:22:28;1.50;;;1.13;;
22144;SDS011;11238;48.730;11.566;2022-07-17T10:25:14;3.55;;;1.25;;
22144;SDS011;11238;48.730;11.566;2022-07-17T10:27:49;1.45;;;1.20;;
22144;SDS011;11238;48.730;11.566;2022-07-17T10:30:23;2.65;;;1.23;;
22144;SDS011;11238;48.730;11.566;2022-07-17T10:32:56;2.20;;;1.27;;
22144;SDS011;11238;48.730;11.566;2022-07-17T10:35:27;4.82;;;1.80;;
22144;SDS011;11238;48.730;11.566;2022-07-17T10:37:58;1.70;;;1.17;;
22144;SDS011;11238;48.730;11.566;2022-07-17T10:40:36;1.73;;;1.27;;
22144;SDS011;11238;48.730;11.566;2022-07-17T10:43:03;1.15;;;1.00;;
22144;SDS011;11238;48.730;11.566;2022-07-17T10:45:43;1.85;;;1.05;;
22144;SDS011;11238;48.730;11.566;2022-07-17T10:48:12;2.80;;;1.27;;
22144;SDS011;11238;48.730;11.566;2022-07-17T10:50:46;4.28;;;1.40;;
22144;SDS011;11238;48.730;11.566;2022-07-17T10:53:19;3.33;;;1.75;;
22144;SDS011;11238;48.730;11.566;2022-07-17T10:55:59;2.40;;;1.30;;
22144;SDS011;11238;48.730;11.566;2022-07-17T10:58:33;2.30;;;1.30;;
22144;SDS011;11238;48.730;11.566;2022-07-17T11:08:59;2.45;;;1.20;;
22144;SDS011;11238;48.730;11.566;2022-07-17T11:11:37;2.72;;;0.95;;
22144;SDS011;11238;48.730;11.566;2022-07-17T11:16:50;0.98;;;0.85;;
22144;SDS011;11238;48.730;11.566;2022-07-17T11:19:21;3.97;;;1.05;;
22144;SDS011;11238;48.730;11.566;2022-07-17T11:21:50;7.20;;;1.20;;
22144;SDS011;11238;48.730;11.566;2022-07-17T11:24:16;2.55;;;1.00;;
22144;SDS011;11238;48.730;11.566;2022-07-17T11:26:43;2.45;;;1.20;;
22144;SDS011;11238;48.730;11.566;2022-07-17T11:29:12;2.38;;;1.20;;
22144;SDS011;11238;48.730;11.566;2022-07-17T11:31:39;2.55;;;0.90;;
22144;SDS011;11238;48.730;11.566;2022-07-17T11:34:06;3.33;;;1.00;;
22144;SDS011;11238;48.730;11.566;2022-07-17T11:36:39;4.97;;;1.23;;
22144;SDS011;11238;48.730;11.566;2022-07-17T11:39:08;2.53;;;1.40;;
22144;SDS011;11238;48.730;11.566;2022-07-17T11:44:07;1.60;;;1.20;;
22144;SDS011;11238;48.730;11.566;2022-07-17T11:46:35;1.85;;;1.17;;
22144;SDS011;11238;48.730;11.566;2022-07-17T11:49:02;3.50;;;1.10;;
22144;SDS011;11238;48.730;11.566;2022-07-17T11:51:35;1.63;;;1.00;;
22144;SDS011;11238;48.730;11.566;2022-07-17T11:54:10;4.97;;;1.17;;
22144;SDS011;11238;48.730;11.566;2022-07-17T11:56:38;3.17;;;1.05;;
22144;SDS011;11238;48.730;11.566;2022-07-17T11:59:05;1.38;;;1.00;;
22144;SDS011;11238;48.730;11.566;2022-07-17T12:01:39;2.47;;;1.10;;
22144;SDS011;11238;48.730;11.566;2022-07-17T12:04:07;3.38;;;1.13;;
22144;SDS011;11238;48.730;11.566;2022-07-17T12:06:35;1.90;;;1.05;;
22144;SDS011;11238;48.730;11.566;2022-07-17T12:09:01;1.63;;;1.25;;
22144;SDS011;11238;48.730;11.566;2022-07-17T12:11:26;3.95;;;0.88;;
22144;SDS011;11238;48.730;11.566;2022-07-17T12:13:52;3.55;;;0.90;;
22144;SDS011;11238;48.730;11.566;2022-07-17T12:16:22;1.48;;;1.25;;
22144;SDS011;11238;48.730;11.566;2022-07-17T12:19:01;1.75;;;0.90;;
22144;SDS011;11238;48.730;11.566;2022-07-17T12:21:30;3.78;;;1.02;;
22144;SDS011;11238;48.730;11.566;2022-07-17T12:23:58;1.75;;;1.13;;
22144;SDS011;11238;48.730;11.566;2022-07-17T12:26:27;1.45;;;1.08;;
22144;SDS011;11238;48.730;11.566;2022-07-17T12:28:53;2.03;;;1.05;;
22144;SDS011;11238;48.730;11.566;2022-07-17T12:31:19;2.50;;;0.93;;
22144;SDS011;11238;48.730;11.566;2022-07-17T12:33:45;2.85;;;0.93;;
22144;SDS011;11238;48.730;11.566;2022-07-17T12:36:12;2.10;;;1.30;;
22144;SDS011;11238;48.730;11.566;2022-07-17T12:38:38;6.75;;;0.90;;
22144;SDS011;11238;48.730;11.566;2022-07-17T12:41:04;1.95;;;0.90;;
22144;SDS011;11238;48.730;11.566;2022-07-17T12:43:30;3.30;;;1.02;;
22144;SDS011;11238;48.730;11.566;2022-07-17T12:45:56;2.75;;;0.90;;
22144;SDS011;11238;48.730;11.566;2022-07-17T12:48:22;2.03;;;1.10;;
22144;SDS011;11238;48.730;11.566;2022-07-17T12:50:48;1.73;;;0.98;;
22144;SDS011;11238;48.730;11.566;2022-07-17T12:53:14;1.58;;;0.77;;
22144;SDS011;11238;48.730;11.566;2022-07-17T12:55:40;1.20;;;0.90;;
22144;SDS011;11238;48.730;11.566;2022-07-17T12:58:06;3.45;;;0.90;;
22144;SDS011;11238;48.730;11.566;2022-07-17T13:00:31;1.95;;;0.80;;
22144;SDS011;11238;48.730;11.566;2022-07-17T13:02:57;1.35;;;1.00;;
22144;SDS011;11238;48.730;11.566;2022-07-17T13:05:23;1.27;;;0.80;;
22144;SDS011;11238;48.730;11.566;2022-07-17T13:07:50;3.08;;;0.82;;
22144;SDS011;11238;48.730;11.566;2022-07-17T13:10:16;3.05;;;0.90;;
22144;SDS011;11238;48.730;11.566;2022-07-17T13:12:42;1.95;;;0.93;;
22144;SDS011;11238;48.730;11.566;2022-07-17T13:15:08;2.65;;;0.95;;
22144;SDS011;11238;48.730;11.566;2022-07-17T13:17:35;1.45;;;0.90;;
22144;SDS011;11238;48.730;11.566;2022-07-17T13:20:01;2.95;;;0.80;;
22144;SDS011;11238;48.730;11.566;2022-07-17T13:22:27;0.93;;;0.75;;
22144;SDS011;11238;48.730;11.566;2022-07-17T13:24:53;1.30;;;0.82;;
22144;SDS011;11238;48.730;11.566;2022-07-17T13:27:18;0.95;;;0.80;;
22144;SDS011;11238;48.730;11.566;2022-07-17T13:29:44;2.35;;;0.80;;
22144;SDS011;11238;48.730;11.566;2022-07-17T13:32:10;3.33;;;0.88;;
22144;SDS011;11238;48.730;11.566;2022-07-17T13:34:36;1.88;;;0.90;;
22144;SDS011;11238;48.730;11.566;2022-07-17T13:39:36;4.05;;;1.00;;
22144;SDS011;11238;48.730;11.566;2022-07-17T13:42:02;2.55;;;0.80;;
22144;SDS011;11238;48.730;11.566;2022-07-17T13:44:28;1.23;;;0.90;;
22144;SDS011;11238;48.730;11.566;2022-07-17T13:46:55;1.85;;;0.80;;
22144;SDS011;11238;48.730;11.566;2022-07-17T13:49:21;1.20;;;0.80;;
22144;SDS011;11238;48.730;11.566;2022-07-17T13:51:47;3.08;;;0.80;;
22144;SDS011;11238;48.730;11.566;2022-07-17T13:54:13;1.40;;;0.85;;
22144;SDS011;11238;48.730;11.566;2022-07-17T13:56:39;1.73;;;0.80;;
22144;SDS011;11238;48.730;11.566;2022-07-17T13:59:05;1.90;;;0.95;;
22144;SDS011;11238;48.730;11.566;2022-07-17T14:01:31;2.15;;;0.90;;
22144;SDS011;11238;48.730;11.566;2022-07-17T14:04:00;1.25;;;0.80;;
22144;SDS011;11238;48.730;11.566;2022-07-17T14:06:27;2.50;;;0.90;;
22144;SDS011;11238;48.730;11.566;2022-07-17T14:08:53;1.58;;;0.85;;
22144;SDS011;11238;48.730;11.566;2022-07-17T14:11:19;0.90;;;0.90;;
22144;SDS011;11238;48.730;11.566;2022-07-17T14:13:45;2.50;;;1.20;;
22144;SDS011;11238;48.730;11.566;2022-07-17T14:16:11;1.20;;;1.08;;
22144;SDS011;11238;48.730;11.566;2022-07-17T14:18:37;1.23;;;1.00;;
22144;SDS011;11238;48.730;11.566;2022-07-17T14:21:22;0.93;;;0.90;;
22144;SDS011;11238;48.730;11.566;2022-07-17T14:23:49;2.97;;;1.00;;
22144;SDS011;11238;48.730;11.566;2022-07-17T14:26:15;3.55;;;1.20;;
22144;SDS011;11238;48.730;11.566;2022-07-17T14:28:41;1.45;;;0.90;;
22144;SDS011;11238;48.730;11.566;2022-07-17T14:31:07;2.35;;;1.45;;
22144;SDS011;11238;48.730;11.566;2022-07-17T14:33:33;3.90;;;0.95;;
22144;SDS011;11238;48.730;11.566;2022-07-17T14:35:59;1.30;;;1.00;;
22144;SDS011;11238;48.730;11.566;2022-07-17T14:38:25;1.40;;;0.80;;
22144;SDS011;11238;48.730;11.566;2022-07-17T14:40:51;1.80;;;0.75;;
22144;SDS011;11238;48.730;11.566;2022-07-17T14:43:16;2.10;;;0.90;;
22144;SDS011;11238;48.730;11.566;2022-07-17T14:45:42;1.70;;;0.90;;
22144;SDS011;11238;48.730;11.566;2022-07-17T14:48:08;2.65;;;1.05;;
22144;SDS011;11238;48.730;11.566;2022-07-17T14:50:34;1.30;;;0.90;;
22144;SDS011;11238;48.730;11.566;2022-07-17T14:53:00;1.30;;;0.90;;
22144;SDS011;11238;48.730;11.566;2022-07-17T14:55:26;2.22;;;0.90;;
22144;SDS011;11238;48.730;11.566;2022-07-17T14:57:52;3.28;;;1.33;;